Time;durP1;ratioP1;P1;durP2;ratioP2;P2;SDS_P1;SDS_P2;PMS_P1;PMS_P2;Temp;Humidity;BMP_temperature;BMP_pressure;BME280_temperature;BME280_humidity;BME280_pressure;Samples;Min_cycle;Max_cycle;Signal;HPM_P1;HPM_P2
2023/07/10 00:01:33;;;;;;;8.55;5.63;;;27.90;39.00;;;28.75;34.82;97870.19;5029462;28;20072;-40
2023/07/10 00:04:01;;;;;;;7.10;6.38;;;27.30;42.10;;;28.65;35.35;97842.78;5031010;28;20041;-40
2023/07/10 00:06:29;;;;;;;6.70;5.47;;;26.90;42.70;;;28.55;35.21;97862.78;5030777;28;20049;-42
2023/07/10 00:08:57;;;;;;;8.30;5.70;;;26.70;43.50;;;28.50;35.48;97843.59;5031182;28;20500;-40
2023/07/10 00:11:30;;;;;;;6.00;5.45;;;26.60;43.60;;;28.47;35.55;97833.19;5030368;28;20276;-40
2023/07/10 00:13:58;;;;;;;10.63;5.68;;;26.60;44.00;;;28.42;36.05;97849.59;5029593;28;20052;-41
2023/07/10 00:16:28;;;;;;;7.05;5.55;;;26.50;44.40;;;28.24;36.19;97848.19;5030888;28;20041;-40
2023/07/10 00:18:55;;;;;;;6.70;5.97;;;26.30;45.90;;;28.10;36.83;97839.69;5034097;28;20037;-40
2023/07/10 00:21:23;;;;;;;9.75;6.63;;;26.10;46.10;;;27.92;37.60;97837.44;5032855;28;20061;-40
2023/07/10 00:23:51;;;;;;;6.45;5.70;;;26.00;47.50;;;27.84;37.58;97842.34;5035330;28;20045;-40
2023/07/10 00:26:25;;;;;;;7.60;5.78;;;25.90;46.80;;;27.71;37.79;97839.28;5034314;28;20061;-40
2023/07/10 00:28:57;;;;;;;7.35;5.70;;;25.80;47.80;;;27.58;38.59;97832.38;5033233;28;20109;-39
2023/07/10 00:31:25;;;;;;;6.95;6.25;;;25.80;48.60;;;27.51;38.49;97832.63;5032548;28;20050;-40
2023/07/10 00:33:54;;;;;;;8.73;6.32;;;25.70;47.90;;;27.47;39.35;97826.03;5032759;28;20519;-40
2023/07/10 00:36:37;;;;;;;7.10;5.68;;;25.80;48.90;;;27.33;40.04;97827.63;5032710;28;20049;-40
2023/07/10 00:39:25;;;;;;;6.03;5.40;;;25.70;48.90;;;27.39;39.51;97832.00;5032795;28;20041;-40
2023/07/10 00:42:02;;;;;;;7.82;5.70;;;25.80;49.50;;;27.38;40.07;97817.53;5025306;28;20068;-40
2023/07/10 00:44:39;;;;;;;6.97;6.10;;;25.80;50.30;;;27.37;40.09;97813.13;5033062;28;20057;-40
2023/07/10 00:47:29;;;;;;;10.25;5.85;;;25.80;49.40;;;27.46;39.87;97816.19;5032428;28;20064;-39
2023/07/10 00:50:11;;;;;;;6.35;5.68;;;25.90;49.80;;;27.53;39.63;97813.22;5026300;28;20064;-40
2023/07/10 00:52:43;;;;;;;6.47;5.70;;;26.00;49.40;;;27.56;39.73;97815.41;5032766;28;20056;-40
2023/07/10 00:55:34;;;;;;;8.75;5.95;;;26.00;49.20;;;27.48;40.28;97822.22;5032547;28;20421;-40
2023/07/10 00:58:39;;;;;;;8.00;5.95;;;25.90;50.10;;;27.36;40.65;97844.31;5027976;28;20064;-39
2023/07/10 01:01:19;;;;;;;10.82;6.75;;;25.80;50.80;;;27.33;40.15;97858.50;5027161;28;20425;-40
2023/07/10 01:03:52;;;;;;;6.95;6.10;;;25.70;50.80;;;27.32;40.24;97865.06;5024914;28;20512;-39
2023/07/10 01:06:26;;;;;;;7.00;5.90;;;25.70;50.40;;;27.16;40.62;97871.47;5033455;28;20057;-39
2023/07/10 01:09:02;;;;;;;7.18;5.40;;;25.50;50.80;;;27.19;40.58;97871.78;5016397;28;20046;-40
2023/07/10 01:11:37;;;;;;;10.50;6.30;;;25.50;50.50;;;27.13;41.29;97881.03;5048063;28;20038;-40
2023/07/10 01:14:08;;;;;;;8.50;5.77;;;25.60;50.40;;;27.19;41.02;97881.88;5032297;28;20516;-40
2023/07/10 01:16:36;;;;;;;7.25;6.40;;;25.60;50.20;;;27.19;41.05;97895.56;5033420;28;20420;-40
2023/07/10 01:19:15;;;;;;;8.15;5.78;;;25.60;50.20;;;27.06;40.99;97905.84;5032088;28;20320;-40
2023/07/10 01:21:43;;;;;;;7.75;5.25;;;25.50;50.80;;;27.03;41.02;97900.09;5031890;28;20041;-40
2023/07/10 01:24:10;;;;;;;9.38;6.78;;;25.50;51.20;;;27.09;40.96;97896.31;5032305;28;20049;-40
2023/07/10 01:26:39;;;;;;;10.43;7.05;;;25.50;50.60;;;27.16;40.83;97896.06;5015308;28;20053;-39
2023/07/10 01:29:29;;;;;;;7.22;5.88;;;25.60;49.80;;;27.16;40.69;97899.66;5033141;28;20053;-39
2023/07/10 01:31:57;;;;;;;8.00;5.82;;;25.60;50.30;;;27.17;40.24;97903.19;5008916;28;20052;-40
2023/07/10 01:34:38;;;;;;;6.85;5.38;;;25.50;50.10;;;27.19;40.38;97895.56;5031590;28;20512;-40
2023/07/10 01:37:07;;;;;;;7.55;5.47;;;25.60;50.20;;;27.10;40.45;97896.03;5015749;28;20061;-39
2023/07/10 01:39:41;;;;;;;6.95;5.55;;;25.50;50.50;;;27.07;40.55;97890.28;5031771;28;20493;-39
2023/07/10 01:42:09;;;;;;;7.25;6.43;;;25.40;50.20;;;26.99;40.71;97891.59;5032870;28;20057;-39
2023/07/10 01:44:41;;;;;;;7.82;6.15;;;25.40;50.60;;;26.95;40.63;97889.63;5031557;28;20053;-40
2023/07/10 01:47:12;;;;;;;7.05;5.68;;;25.30;50.80;;;26.94;40.80;97879.78;5032436;28;20397;-39
2023/07/10 01:49:48;;;;;;;7.72;5.55;;;25.30;50.70;;;26.98;41.03;97881.72;5031295;28;20406;-40
2023/07/10 01:52:19;;;;;;;7.63;5.95;;;25.40;50.80;;;26.96;41.06;97874.91;5031225;28;20044;-40
2023/07/10 01:54:50;;;;;;;8.68;6.03;;;25.30;50.60;;;26.89;41.28;97900.53;5031527;28;20042;-40
2023/07/10 01:57:23;;;;;;;9.43;5.10;;;25.30;50.50;;;26.95;40.85;97900.56;5032460;28;20045;-39
2023/07/10 01:59:52;;;;;;;9.50;5.60;;;25.30;50.50;;;26.96;40.90;97892.09;5023247;28;20045;-40
2023/07/10 02:02:20;;;;;;;8.32;5.38;;;25.40;50.60;;;26.83;40.81;97890.66;5032529;28;20497;-40
2023/07/10 02:04:49;;;;;;;11.15;6.28;;;25.30;50.80;;;26.80;41.27;97890.34;5031243;28;20049;-39
2023/07/10 02:07:17;;;;;;;7.82;5.90;;;25.20;51.00;;;26.82;41.00;97879.97;5030945;28;20057;-39
2023/07/10 02:09:44;;;;;;;8.40;5.55;;;25.20;50.90;;;26.75;41.30;97885.63;5030991;28;20049;-40
2023/07/10 02:12:12;;;;;;;7.93;5.93;;;25.10;51.40;;;26.68;41.69;97876.88;5014738;28;20543;-40
2023/07/10 02:14:40;;;;;;;6.47;5.53;;;25.10;51.50;;;26.68;41.37;97869.50;5031737;28;20420;-54
2023/07/10 02:17:08;;;;;;;9.18;5.88;;;25.10;51.40;;;26.72;41.36;97861.59;5030869;28;20448;-53
2023/07/10 02:19:35;;;;;;;5.95;4.93;;;25.10;51.40;;;26.76;41.15;97856.44;5030676;28;20528;-53
2023/07/10 02:22:03;;;;;;;14.02;6.40;;;25.10;51.40;;;26.76;41.31;97851.81;5030693;28;20046;-54
2023/07/10 02:24:31;;;;;;;7.45;5.05;;;25.00;51.40;;;26.81;41.58;97861.94;5030303;28;20061;-53
2023/07/10 02:26:59;;;;;;;11.65;5.40;;;25.10;51.20;;;26.83;41.42;97860.59;5031861;28;20041;-54
2023/07/10 02:29:28;;;;;;;8.27;5.60;;;25.20;51.20;;;26.86;41.03;97871.00;5030834;28;20049;-52
2023/07/10 02:31:59;;;;;;;10.82;6.18;;;25.20;51.30;;;26.84;41.03;97875.91;5030373;28;20057;-52
2023/07/10 02:34:29;;;;;;;9.52;6.75;;;25.20;51.70;;;26.84;41.06;97888.72;5031809;28;20041;-51
2023/07/10 02:36:56;;;;;;;8.25;5.20;;;25.10;51.50;;;26.78;41.44;97896.06;5030561;28;20045;-53
2023/07/10 02:39:24;;;;;;;7.13;6.43;;;25.10;52.10;;;26.78;41.50;97889.78;5030689;28;20537;-52
2023/07/10 02:41:51;;;;;;;6.78;5.80;;;25.10;51.80;;;26.82;41.61;97901.81;5029097;28;20064;-52
2023/07/10 02:44:21;;;;;;;8.60;5.45;;;25.20;51.60;;;26.70;41.53;97908.28;5030836;28;20045;-54
2023/07/10 02:46:48;;;;;;;5.70;5.10;;;25.20;51.40;;;26.75;41.67;97912.13;5032201;28;20163;-51
2023/07/10 02:49:17;;;;;;;9.02;6.03;;;25.20;51.30;;;26.77;41.52;97915.44;5030617;28;20049;-51
2023/07/10 02:51:44;;;;;;;7.53;5.43;;;25.30;51.20;;;26.75;41.71;97907.50;5029839;28;20519;-54
2023/07/10 02:54:13;;;;;;;14.30;5.85;;;25.30;50.90;;;26.84;41.42;97897.75;5031461;28;20037;-55
2023/07/10 02:56:41;;;;;;;11.07;5.72;;;25.40;51.00;;;26.85;41.71;97891.22;5030736;28;20050;-52
2023/07/10 02:59:08;;;;;;;8.30;5.20;;;25.40;50.80;;;26.90;41.40;97877.56;5031485;28;20050;-54
2023/07/10 03:01:36;;;;;;;6.97;5.05;;;25.50;50.80;;;26.90;41.47;97880.31;5029836;28;20053;-55
2023/07/10 03:04:04;;;;;;;6.47;5.80;;;25.40;51.20;;;26.89;41.41;97883.31;5031176;28;20076;-54
2023/07/10 03:06:32;;;;;;;5.70;5.10;;;25.30;51.20;;;26.88;41.40;97877.00;5031775;28;20052;-52
2023/07/10 03:08:59;;;;;;;8.10;5.63;;;25.30;51.20;;;26.87;41.39;97860.88;5031424;28;20049;-50
2023/07/10 03:11:28;;;;;;;7.45;5.90;;;25.30;51.40;;;26.89;41.83;97873.22;5029698;28;20065;-53
2023/07/10 03:13:57;;;;;;;9.70;5.07;;;25.30;51.30;;;26.91;41.74;97884.69;5031183;28;20544;-53
2023/07/10 03:16:25;;;;;;;9.65;6.05;;;25.30;51.00;;;26.91;41.65;97890.16;5030375;28;20501;-53
2023/07/10 03:18:52;;;;;;;6.35;4.85;;;25.40;51.00;;;26.96;41.69;97899.47;5031139;28;20041;-52
2023/07/10 03:21:20;;;;;;;9.95;4.93;;;25.40;50.90;;;26.96;41.35;97913.13;5031038;28;20044;-54
2023/07/10 03:23:49;;;;;;;8.40;5.50;;;25.40;50.80;;;26.98;41.08;97916.44;5029830;28;20528;-52
2023/07/10 03:26:17;;;;;;;10.38;6.22;;;25.40;50.70;;;26.99;41.00;97929.84;5031379;28;20398;-55
2023/07/10 03:28:45;;;;;;;7.18;5.60;;;25.40;50.60;;;26.97;41.59;97934.72;5031463;28;20041;-52
2023/07/10 03:31:13;;;;;;;8.43;5.82;;;25.40;50.90;;;26.95;41.50;97941.53;5030871;28;20052;-53
2023/07/10 03:33:40;;;;;;;6.35;5.18;;;25.40;51.10;;;26.91;41.25;97947.53;5030078;28;20050;-55
2023/07/10 03:36:09;;;;;;;7.03;4.85;;;25.30;51.20;;;26.87;41.67;97951.84;5031152;28;20057;-49
2023/07/10 03:38:37;;;;;;;5.93;4.78;;;25.30;51.20;;;26.82;41.77;97960.00;5031165;28;20509;-52
2023/07/10 03:41:04;;;;;;;6.30;5.05;;;25.20;51.20;;;26.82;41.33;97965.47;5031028;28;20034;-52
2023/07/10 03:43:32;;;;;;;7.75;5.55;;;25.20;51.20;;;26.81;41.60;97960.25;5030352;28;20060;-51
2023/07/10 03:45:59;;;;;;;8.77;5.63;;;25.30;51.10;;;26.79;41.84;97954.22;5031151;28;20521;-51
2023/07/10 03:48:27;;;;;;;7.82;5.65;;;25.30;51.20;;;26.73;41.55;97953.34;5030770;28;20501;-53
2023/07/10 03:50:55;;;;;;;9.35;5.63;;;25.20;51.40;;;26.70;42.22;97959.34;5030584;28;20042;-53
2023/07/10 03:53:22;;;;;;;7.30;5.80;;;25.20;51.60;;;26.69;42.19;97966.69;5034232;28;20049;-55
2023/07/10 03:55:52;;;;;;;9.77;6.15;;;25.20;51.80;;;26.63;42.48;97969.63;5033333;28;20045;-55
2023/07/10 03:58:28;;;;;;;7.78;5.90;;;25.10;52.10;;;26.56;42.54;97966.25;5034810;28;20049;-53
2023/07/10 04:00:58;;;;;;;9.43;5.20;;;25.00;53.10;;;26.54;42.27;97969.25;5033316;28;20056;-53
2023/07/10 04:03:31;;;;;;;5.65;4.97;;;25.00;52.90;;;26.51;43.01;97972.50;5034841;28;20054;-53
2023/07/10 04:06:00;;;;;;;8.10;5.75;;;25.00;53.20;;;26.47;43.13;97965.91;5034556;28;20046;-54
2023/07/10 04:08:32;;;;;;;7.80;5.53;;;25.00;53.30;;;26.56;42.91;97960.78;5034645;28;20053;-53
2023/07/10 04:11:03;;;;;;;8.68;5.90;;;25.00;53.10;;;26.60;42.84;97954.59;5033734;28;20053;-54
2023/07/10 04:13:31;;;;;;;6.95;5.25;;;25.00;52.70;;;26.62;42.76;97957.91;5034535;28;20052;-52
2023/07/10 04:16:05;;;;;;;7.18;5.35;;;25.20;52.50;;;26.71;42.30;97956.34;5034434;28;20056;-51
2023/07/10 04:18:39;;;;;;;7.40;4.93;;;25.30;52.40;;;26.83;42.34;97963.53;5034282;28;20042;-52
2023/07/10 04:21:19;;;;;;;8.18;5.65;;;25.40;51.80;;;26.92;41.91;97967.47;5025075;28;20049;-55
2023/07/10 04:23:48;;;;;;;9.20;6.18;;;25.40;52.40;;;26.97;42.32;97981.19;5017016;28;20524;-54
2023/07/10 04:26:29;;;;;;;5.53;5.00;;;25.50;51.40;;;27.00;42.17;97999.75;5034399;28;20049;-55
2023/07/10 04:29:00;;;;;;;8.68;5.22;;;25.60;51.70;;;27.07;42.18;97999.56;5034269;28;20060;-55
2023/07/10 04:31:28;;;;;;;6.10;5.45;;;25.60;51.40;;;27.11;42.18;97995.22;5032690;28;20049;-52
2023/07/10 04:33:57;;;;;;;7.93;5.53;;;25.70;51.10;;;27.15;41.66;97998.28;5034015;28;20046;-52
2023/07/10 04:36:25;;;;;;;7.28;5.57;;;25.80;50.80;;;27.14;41.63;98002.06;5034146;28;20049;-54
2023/07/10 04:38:53;;;;;;;10.73;6.32;;;25.70;51.00;;;27.13;41.99;98016.84;5033968;28;20050;-54
2023/07/10 04:41:23;;;;;;;7.25;5.63;;;25.60;51.30;;;27.11;41.66;98006.16;5033102;28;20037;-53
2023/07/10 04:43:51;;;;;;;7.18;5.20;;;25.60;51.40;;;27.14;42.02;98002.06;5033867;28;20601;-53
2023/07/10 04:46:20;;;;;;;9.38;5.70;;;25.60;51.30;;;27.14;41.52;98005.63;5033825;28;20072;-54
2023/07/10 04:48:48;;;;;;;8.45;5.53;;;25.60;51.20;;;27.13;41.47;98006.72;5032659;28;20042;-52
2023/07/10 04:51:17;;;;;;;6.97;5.05;;;25.60;51.20;;;27.14;41.67;98007.53;5033381;28;20496;-51
2023/07/10 04:53:46;;;;;;;8.30;5.45;;;25.60;51.10;;;27.15;41.62;97996.34;5031943;28;20050;-55
2023/07/10 04:56:16;;;;;;;6.18;5.30;;;25.70;51.00;;;27.14;41.49;97993.88;5034108;28;20046;-50
2023/07/10 04:58:57;;;;;;;7.53;6.07;;;25.60;51.00;;;27.08;41.99;97991.13;5033509;28;20452;-54
2023/07/10 05:01:29;;;;;;;6.68;6.05;;;25.50;52.00;;;27.04;41.82;98011.81;5033280;28;20053;-54
2023/07/10 05:03:57;;;;;;;8.45;6.28;;;25.40;52.10;;;27.01;41.95;98008.81;5033038;28;20501;-53
2023/07/10 05:06:25;;;;;;;6.20;5.20;;;25.30;52.20;;;26.98;42.05;98004.66;5033425;28;20061;-53
2023/07/10 05:09:00;;;;;;;6.63;5.97;;;25.20;52.50;;;26.99;42.04;98019.16;5032133;28;20108;-55
2023/07/10 05:11:30;;;;;;;8.65;5.90;;;25.30;52.70;;;26.98;42.32;98036.63;5033323;28;20049;-53
2023/07/10 05:13:58;;;;;;;7.60;4.65;;;25.30;52.70;;;26.98;42.30;98040.19;5032998;28;20045;-54
2023/07/10 05:16:29;;;;;;;8.90;6.20;;;25.40;52.70;;;26.98;42.66;98051.09;5033456;28;20045;-53
2023/07/10 05:18:57;;;;;;;6.68;5.85;;;25.40;52.30;;;27.01;42.27;98047.06;5032987;28;20045;-54
2023/07/10 05:21:25;;;;;;;5.95;5.35;;;25.50;52.20;;;27.00;42.82;98046.19;5032498;28;20049;-52
2023/07/10 05:23:52;;;;;;;8.50;5.63;;;25.50;52.40;;;27.04;42.47;98044.59;5033117;28;20090;-49
2023/07/10 05:26:20;;;;;;;9.27;5.60;;;25.50;52.30;;;27.10;42.31;98037.28;5033051;28;20050;-52
2023/07/10 05:28:47;;;;;;;8.68;5.90;;;25.60;52.10;;;27.11;42.89;98037.03;5032831;28;20065;-49
2023/07/10 05:31:15;;;;;;;8.15;5.07;;;25.70;52.20;;;27.12;42.51;98026.91;5032775;28;20045;-50
2023/07/10 05:33:45;;;;;;;7.28;5.97;;;25.70;52.30;;;27.17;42.39;98037.09;5033091;28;20046;-50
2023/07/10 05:36:13;;;;;;;7.65;5.82;;;25.70;51.90;;;27.19;42.77;98034.91;5024138;28;20053;-50
2023/07/10 05:38:41;;;;;;;6.78;5.30;;;25.70;51.90;;;27.24;42.58;98032.25;5031641;28;20417;-52
2023/07/10 05:41:10;;;;;;;10.55;6.63;;;25.80;51.90;;;27.30;42.76;98037.50;5032382;28;20075;-49
2023/07/10 05:43:38;;;;;;;7.07;5.57;;;25.90;51.70;;;27.35;42.74;98031.25;5032319;28;20065;-53
2023/07/10 05:46:06;;;;;;;7.20;5.15;;;26.00;52.00;;;27.39;42.36;98031.56;5033092;28;20132;-54
2023/07/10 05:48:34;;;;;;;12.18;5.70;;;25.90;51.40;;;27.37;42.61;98039.19;5032328;28;20050;-52
2023/07/10 05:51:02;;;;;;;6.78;5.70;;;26.00;52.30;;;27.42;42.52;98031.03;5031992;28;20057;-54
2023/07/10 05:53:30;;;;;;;8.10;5.65;;;26.10;52.10;;;27.35;42.78;98024.97;5032345;28;20045;-52
2023/07/10 05:55:58;;;;;;;8.88;6.00;;;26.00;52.30;;;27.34;42.89;98035.09;5032592;28;20515;-53
2023/07/10 05:58:29;;;;;;;6.93;5.65;;;26.00;52.60;;;27.45;42.78;98052.38;5032490;28;20037;-51
2023/07/10 06:01:00;;;;;;;8.73;6.25;;;26.10;52.40;;;27.52;42.61;98065.84;5032194;28;20056;-49
2023/07/10 06:03:33;;;;;;;8.45;6.50;;;26.20;52.20;;;27.60;42.35;98082.59;5032552;28;20050;-51
2023/07/10 06:06:05;;;;;;;9.15;5.65;;;26.20;52.00;;;27.62;42.61;98096.00;5031028;28;20041;-51
2023/07/10 06:08:35;;;;;;;;;;;26.20;51.90;;;27.72;42.43;98108.94;5031618;28;20424;-53
2023/07/10 06:11:04;;;;;;;6.32;5.70;;;26.30;52.00;;;27.85;42.04;98098.38;5030683;28;20393;-54
2023/07/10 06:13:32;;;;;;;8.60;6.60;;;26.50;51.70;;;27.95;41.94;98096.81;5032214;28;20493;-51
2023/07/10 06:16:06;;;;;;;9.07;6.10;;;26.60;51.30;;;28.01;41.88;98087.56;5031425;28;20053;-51
2023/07/10 06:18:34;;;;;;;6.07;5.47;;;26.70;51.70;;;28.05;42.42;98088.69;5031903;28;20396;-51
2023/07/10 06:21:03;;;;;;;6.05;5.32;;;26.80;50.90;;;28.11;42.37;98086.81;5031641;28;20489;-52
2023/07/10 06:23:31;;;;;;;8.93;5.80;;;26.90;50.90;;;28.09;42.07;98084.31;5032837;28;20060;-52
2023/07/10 06:25:59;;;;;;;5.30;4.60;;;26.90;50.90;;;28.05;42.55;98075.84;5031905;28;20037;-53
2023/07/10 06:28:30;;;;;;;5.88;5.28;;;27.00;51.20;;;28.00;42.05;98075.78;5031928;28;20492;-51
2023/07/10 06:31:02;;;;;;;5.22;4.13;;;27.00;50.70;;;27.99;42.19;98074.13;5031489;28;20045;-51
2023/07/10 06:33:32;;;;;;;14.50;4.65;;;27.00;50.70;;;28.03;41.72;98074.44;5031696;28;20041;-50
2023/07/10 06:36:01;;;;;;;8.45;4.65;;;27.00;50.30;;;28.07;42.25;98065.44;5031980;28;20049;-51
2023/07/10 06:38:29;;;;;;;6.93;4.55;;;27.10;50.60;;;27.94;42.58;98052.25;5031729;28;20041;-54
2023/07/10 06:40:57;;;;;;;6.03;4.97;;;27.00;50.60;;;28.05;42.30;98053.09;5031268;28;20595;-53
2023/07/10 06:43:25;;;;;;;6.95;4.38;;;27.00;50.40;;;28.16;41.99;98054.81;5029498;28;20448;-52
2023/07/10 06:45:56;;;;;;;5.50;4.70;;;27.20;50.10;;;28.23;41.94;98052.66;5031560;28;20096;-54
2023/07/10 06:48:24;;;;;;;6.10;4.03;;;27.30;49.90;;;28.14;41.87;98065.22;5031334;28;20041;-52
2023/07/10 06:50:54;;;;;;;5.53;4.50;;;27.20;50.10;;;28.06;41.88;98061.06;5031394;28;20052;-49
2023/07/10 06:53:23;;;;;;;7.80;4.40;;;27.10;50.40;;;28.22;42.36;98069.34;5024513;28;20049;-52
2023/07/10 06:55:56;;;;;;;5.53;4.50;;;27.10;50.80;;;28.36;42.21;98073.25;5030666;28;20044;-52
2023/07/10 06:58:25;;;;;;;6.47;4.40;;;27.30;50.60;;;28.27;42.66;98064.72;5030665;28;20413;-51
2023/07/10 07:00:53;;;;;;;5.40;4.32;;;27.30;50.80;;;28.24;42.76;98059.78;5031445;28;20151;-55
2023/07/10 07:03:22;;;;;;;5.47;4.20;;;27.30;50.90;;;28.27;42.36;98070.22;5023831;28;20045;-55
2023/07/10 07:05:51;;;;;;;5.20;4.45;;;27.30;50.70;;;28.13;42.62;98070.94;5031748;28;20053;-54
2023/07/10 07:08:20;;;;;;;5.57;4.38;;;27.20;50.70;;;28.16;42.29;98076.72;5029979;28;20125;-53
2023/07/10 07:10:51;;;;;;;5.30;4.43;;;27.20;50.90;;;28.07;43.11;98086.50;5031043;28;20041;-53
2023/07/10 07:13:20;;;;;;;7.03;4.95;;;27.00;51.90;;;27.98;43.30;98077.16;5031554;28;20045;-52
2023/07/10 07:15:55;;;;;;;6.10;4.45;;;27.00;52.50;;;27.97;43.44;98078.22;5031441;28;20044;-54
2023/07/10 07:18:24;;;;;;;5.13;4.60;;;26.90;52.80;;;27.94;43.97;98082.34;5023244;28;20048;-54
2023/07/10 07:20:56;;;;;;;6.63;5.07;;;26.70;53.20;;;28.01;43.45;98085.63;5030736;28;20064;-53
2023/07/10 07:23:25;;;;;;;10.52;4.78;;;26.70;53.20;;;28.10;44.15;98093.38;5031127;28;20038;-53
2023/07/10 07:25:57;;;;;;;6.80;5.00;;;26.90;53.80;;;28.18;43.34;98104.63;5031777;28;20425;-53
2023/07/10 07:28:25;;;;;;;10.47;6.40;;;27.00;53.30;;;28.15;44.05;98113.38;5027682;28;20037;-52
2023/07/10 07:30:59;;;;;;;5.20;4.30;;;27.00;53.30;;;28.01;43.87;98117.66;5035006;28;20042;-53
2023/07/10 07:33:27;;;;;;;7.38;4.05;;;26.90;53.20;;;27.94;44.53;98117.91;5026531;28;20045;-54
2023/07/10 07:35:55;;;;;;;6.82;4.97;;;26.90;53.50;;;27.70;45.22;98122.84;5035207;28;20045;-50
2023/07/10 07:38:23;;;;;;;5.68;5.03;;;26.80;54.40;;;27.80;45.05;98131.16;5035098;28;20038;-53
2023/07/10 07:40:50;;;;;;;6.53;5.65;;;26.80;54.00;;;27.85;44.66;98122.97;5034789;28;20037;-52
2023/07/10 07:43:18;;;;;;;8.52;5.13;;;26.80;53.90;;;27.90;44.86;98124.97;5033094;28;20052;-54
2023/07/10 07:45:54;;;;;;;6.47;5.15;;;26.80;54.20;;;28.02;44.70;98128.34;5033808;28;20056;-54
2023/07/10 07:48:23;;;;;;;7.28;5.10;;;27.00;54.50;;;27.98;45.14;98129.16;5034027;28;20052;-54
2023/07/10 07:50:56;;;;;;;7.00;4.57;;;27.00;54.90;;;28.02;45.65;98128.34;5034483;28;20045;-51
2023/07/10 07:53:25;;;;;;;6.22;4.80;;;27.00;55.20;;;28.16;45.19;98138.84;5027091;28;20048;-55
2023/07/10 07:55:52;;;;;;;5.93;4.72;;;27.10;54.90;;;28.19;45.22;98139.13;5034751;28;20042;-55
2023/07/10 07:58:20;;;;;;;8.40;4.93;;;27.20;54.50;;;28.17;44.91;98141.31;5033392;28;20037;-50
2023/07/10 08:00:50;;;;;;;7.05;5.43;;;27.20;54.60;;;28.08;45.72;98140.16;5033004;28;20037;-50
2023/07/10 08:03:17;;;;;;;5.72;5.13;;;27.10;55.20;;;28.00;46.13;98138.72;5034640;28;20054;-51
2023/07/10 08:05:45;;;;;;;6.03;5.15;;;27.00;55.90;;;28.15;45.92;98140.75;5034643;28;20390;-54
2023/07/10 08:08:13;;;;;;;5.75;4.63;;;27.10;55.60;;;28.26;45.75;98145.19;5034412;28;20416;-54
2023/07/10 08:10:47;;;;;;;8.20;5.65;;;27.30;55.10;;;28.42;45.28;98131.59;5034121;28;20072;-51
2023/07/10 08:13:18;;;;;;;8.07;5.53;;;27.40;55.00;;;28.50;45.34;98133.00;5034362;28;20049;-53
2023/07/10 08:15:46;;;;;;;6.82;5.90;;;27.50;54.60;;;28.53;45.26;98127.03;5034352;28;20481;-55
2023/07/10 08:18:13;;;;;;;6.13;5.53;;;27.60;54.30;;;28.50;45.27;98128.38;5034144;28;20496;-51
2023/07/10 08:20:41;;;;;;;6.10;4.75;;;27.60;55.20;;;28.47;45.59;98134.38;5033815;28;20037;-54
2023/07/10 08:23:08;;;;;;;6.18;5.60;;;27.60;54.30;;;28.54;45.71;98121.31;5034043;28;20116;-54
2023/07/10 08:25:36;;;;;;;7.07;5.85;;;27.60;54.60;;;28.47;45.53;98124.22;5034281;28;20041;-53
2023/07/10 08:28:04;;;;;;;6.28;5.07;;;27.60;54.30;;;28.55;45.47;98124.84;5032996;28;20050;-53
2023/07/10 08:30:31;;;;;;;6.85;5.60;;;27.60;54.50;;;28.59;45.17;98131.44;5033912;28;20048;-51
2023/07/10 08:32:59;;;;;;;6.07;5.55;;;27.70;54.50;;;28.37;45.75;98126.94;5034340;28;20053;-52
2023/07/10 08:35:27;;;;;;;7.35;5.70;;;27.50;54.60;;;28.47;45.97;98129.72;5032830;28;20048;-53
2023/07/10 08:37:54;;;;;;;7.53;5.57;;;27.60;54.90;;;28.43;45.97;98120.38;5033476;28;20088;-55
2023/07/10 08:40:31;;;;;;;6.72;5.78;;;27.60;55.00;;;28.43;45.75;98136.00;5033697;28;20041;-53
2023/07/10 08:43:17;;;;;;;9.45;6.00;;;27.60;54.60;;;28.37;46.01;98120.63;5032096;28;20037;-51
2023/07/10 08:45:46;;;;;;;7.65;6.20;;;27.50;55.20;;;28.41;46.06;98127.22;5026965;28;20045;-52
2023/07/10 08:48:39;;;;;;;6.95;6.18;;;27.50;55.30;;;28.25;46.85;98118.91;5032482;28;20045;-54
2023/07/10 08:51:21;;;;;;;7.88;5.75;;;27.50;55.80;;;28.48;46.35;98125.06;5033463;28;20049;-53
2023/07/10 08:53:57;;;;;;;8.93;5.80;;;27.60;55.70;;;28.25;46.50;98142.75;5033858;28;20524;-53
2023/07/10 08:57:12;;;;;;;6.53;5.45;;;27.50;55.80;;;28.26;46.79;98127.94;5033532;28;20420;-54
2023/07/10 09:00:04;;;;;;;8.38;6.93;;;27.50;55.90;;;28.37;46.15;98137.06;5031413;28;20057;-52
2023/07/10 09:03:22;;;;;;;6.40;5.60;;;27.50;55.30;;;28.32;46.44;98143.31;5024614;28;20049;-49
2023/07/10 09:05:52;;;;;;;9.80;5.88;;;27.50;56.00;;;28.38;46.52;98145.00;5027402;28;20045;-54
2023/07/10 09:08:21;;;;;;;6.95;5.05;;;27.60;55.70;;;28.53;46.66;98147.03;5033201;28;20045;-55
2023/07/10 09:10:57;;;;;;;6.25;5.45;;;27.80;55.30;;;28.69;46.05;98145.19;5033097;28;20049;-51
2023/07/10 09:13:42;;;;;;;6.28;5.68;;;27.90;54.90;;;28.76;45.82;98147.69;5032575;28;20041;-51
2023/07/10 09:16:15;;;;;;;8.90;6.45;;;28.00;55.00;;;28.55;45.84;98152.25;5033063;28;20236;-54
2023/07/10 09:18:52;;;;;;;7.40;5.82;;;27.80;54.30;;;28.65;45.87;98149.53;5033574;28;20042;-53
2023/07/10 09:21:31;;;;;;;10.95;5.72;;;27.70;55.20;;;28.57;45.92;98142.66;5031601;28;20053;-50
2023/07/10 09:23:59;;;;;;;7.00;5.18;;;27.70;54.90;;;28.54;45.93;98139.63;5016476;28;20046;-53
2023/07/10 09:26:31;;;;;;;8.48;6.13;;;27.70;54.70;;;28.56;45.84;98142.94;5033130;28;20053;-55
2023/07/10 09:29:17;;;;;;;9.13;6.00;;;27.70;54.70;;;28.39;46.47;98143.91;5031707;28;20061;-54
2023/07/10 09:32:00;;;;;;;6.68;5.93;;;27.60;55.20;;;28.25;46.41;98149.03;5026327;28;20046;-54
2023/07/10 09:34:32;;;;;;;8.32;6.22;;;27.50;55.30;;;28.50;45.80;98139.31;5032770;28;20057;-50
2023/07/10 09:37:04;;;;;;;7.43;5.45;;;27.70;54.60;;;28.44;45.08;98134.88;5032962;28;20041;-52
2023/07/10 09:39:33;;;;;;;6.47;5.45;;;27.80;53.40;;;28.56;44.60;98129.25;5032962;28;20412;-52
2023/07/10 09:42:03;;;;;;;6.15;5.63;;;27.80;52.50;;;28.73;44.28;98131.78;5031835;28;20041;-54
2023/07/10 09:44:39;;;;;;;7.15;5.28;;;27.80;52.70;;;28.58;44.25;98138.03;5015193;28;20044;-53
2023/07/10 09:47:13;;;;;;;7.68;6.63;;;27.80;52.10;;;28.69;44.29;98134.22;5032840;28;20041;-52
2023/07/10 09:50:00;;;;;;;6.75;5.40;;;28.00;52.60;;;28.85;44.19;98121.44;5024347;28;20041;-52
2023/07/10 09:52:39;;;;;;;5.97;5.15;;;28.00;52.30;;;28.92;43.92;98116.50;5031548;28;20049;-52
2023/07/10 09:55:16;;;;;;;6.63;6.00;;;28.10;52.20;;;29.00;43.35;98116.00;5047845;28;20045;-54
2023/07/10 09:58:04;;;;;;;8.45;6.47;;;28.20;51.40;;;29.06;43.17;98111.34;5026235;28;20421;-51
2023/07/10 10:00:32;;;;;;;7.47;6.07;;;28.30;51.10;;;29.06;43.17;98114.94;5047477;28;20616;-53
2023/07/10 10:03:26;;;;;;;7.53;6.78;;;28.30;51.00;;;29.03;42.96;98104.50;5032407;28;20053;-51
2023/07/10 10:05:56;;;;;;;7.53;6.05;;;28.30;51.00;;;29.22;43.30;98102.09;5025697;28;20042;-52
2023/07/10 10:08:27;;;;;;;6.25;5.65;;;28.40;51.20;;;29.10;43.14;98108.88;5031187;28;20053;-50
2023/07/10 10:11:10;;;;;;;6.32;5.30;;;28.30;51.10;;;29.10;42.84;98115.22;5030747;28;20056;-51
2023/07/10 10:13:47;;;;;;;;;;;28.40;50.70;;;29.19;42.07;98110.84;5025474;28;20156;-54
2023/07/10 10:16:26;;;;;;;9.18;5.90;;;28.50;49.40;;;29.29;42.37;98099.09;5015069;28;19928;-52
2023/07/10 10:19:06;;;;;;;7.20;5.32;;;28.50;49.90;;;29.28;42.04;98096.63;5030446;28;20041;-53
2023/07/10 10:21:35;;;;;;;7.97;5.60;;;28.50;49.50;;;29.30;41.79;98110.91;5031191;28;20496;-52
2023/07/10 10:24:07;;;;;;;6.10;5.22;;;28.60;49.00;;;29.28;41.51;98108.41;5032295;28;20060;-52
2023/07/10 10:27:03;;;;;;;6.68;5.55;;;28.60;48.70;;;29.33;41.34;98097.44;5031931;28;20041;-51
2023/07/10 10:30:17;;;;;;;6.07;5.47;;;28.80;48.10;;;29.41;40.70;98096.06;5031683;28;20041;-54
2023/07/10 10:33:06;;;;;;;6.90;6.20;;;28.90;47.70;;;29.48;40.66;98099.38;5039222;28;20048;-53
2023/07/10 10:36:00;;;;;;;7.70;6.22;;;28.80;47.20;;;29.67;40.49;98099.66;5031840;28;20049;-51
2023/07/10 10:38:57;;;;;;;6.18;4.97;;;29.00;47.20;;;29.78;39.71;98087.63;5014182;28;20062;-53
2023/07/10 10:41:45;;;;;;;7.32;4.97;;;29.00;46.20;;;29.49;39.91;98101.03;5030686;28;20054;-51